sensor_id;sensor_type;location;lat;lon;timestamp;P1;durP1;ratioP1;P2;durP2;ratioP2
18066;SDS011;9158;51.528;7.192;2023-05-09T00:00:15;10.05;;;9.13;;
18066;SDS011;9158;51.528;7.192;2023-05-09T00:00:48;10.73;;;9.82;;
18066;SDS011;9158;51.528;7.192;2023-05-09T00:01:19;11.80;;;9.80;;
18066;SDS011;9158;51.528;7.192;2023-05-09T00:01:50;9.55;;;8.75;;
18066;SDS011;9158;51.528;7.192;2023-05-09T00:02:22;9.57;;;8.77;;
18066;SDS011;9158;51.528;7.192;2023-05-09T00:02:53;12.00;;;9.80;;
18066;SDS011;9158;51.528;7.192;2023-05-09T00:03:25;10.93;;;9.82;;
18066;SDS011;9158;51.528;7.192;2023-05-09T00:03:57;10.52;;;9.57;;
18066;SDS011;9158;51.528;7.192;2023-05-09T00:04:28;11.77;;;9.63;;
18066;SDS011;9158;51.528;7.192;2023-05-09T00:04:59;10.10;;;9.20;;
18066;SDS011;9158;51.528;7.192;2023-05-09T00:05:32;10.80;;;9.70;;
18066;SDS011;9158;51.528;7.192;2023-05-09T00:06:03;11.50;;;10.50;;
18066;SDS011;9158;51.528;7.192;2023-05-09T00:06:35;9.90;;;8.95;;
18066;SDS011;9158;51.528;7.192;2023-05-09T00:07:07;10.70;;;9.80;;
18066;SDS011;9158;51.528;7.192;2023-05-09T00:07:39;10.95;;;9.88;;
18066;SDS011;9158;51.528;7.192;2023-05-09T00:08:10;11.18;;;10.23;;
18066;SDS011;9158;51.528;7.192;2023-05-09T00:08:43;10.45;;;9.65;;
18066;SDS011;9158;51.528;7.192;2023-05-09T00:09:15;11.23;;;10.23;;
18066;SDS011;9158;51.528;7.192;2023-05-09T00:09:46;11.07;;;10.02;;
18066;SDS011;9158;51.528;7.192;2023-05-09T00:10:18;10.77;;;9.77;;
18066;SDS011;9158;51.528;7.192;2023-05-09T00:10:49;10.13;;;9.32;;
18066;SDS011;9158;51.528;7.192;2023-05-09T00:11:20;10.05;;;9.15;;
18066;SDS011;9158;51.528;7.192;2023-05-09T00:11:52;10.15;;;9.25;;
18066;SDS011;9158;51.528;7.192;2023-05-09T00:12:23;11.43;;;9.93;;
18066;SDS011;9158;51.528;7.192;2023-05-09T00:12:54;10.90;;;10.00;;
18066;SDS011;9158;51.528;7.192;2023-05-09T00:13:28;10.85;;;9.50;;
18066;SDS011;9158;51.528;7.192;2023-05-09T00:13:59;10.05;;;9.25;;
18066;SDS011;9158;51.528;7.192;2023-05-09T00:14:30;13.15;;;9.93;;
18066;SDS011;9158;51.528;7.192;2023-05-09T00:15:03;10.75;;;9.75;;
18066;SDS011;9158;51.528;7.192;2023-05-09T00:15:37;10.90;;;9.98;;
18066;SDS011;9158;51.528;7.192;2023-05-09T00:16:08;9.88;;;9.07;;
18066;SDS011;9158;51.528;7.192;2023-05-09T00:16:40;10.38;;;9.27;;
18066;SDS011;9158;51.528;7.192;2023-05-09T00:17:11;10.87;;;9.80;;
18066;SDS011;9158;51.528;7.192;2023-05-09T00:17:43;10.90;;;9.90;;
18066;SDS011;9158;51.528;7.192;2023-05-09T00:18:15;11.55;;;9.60;;
18066;SDS011;9158;51.528;7.192;2023-05-09T00:18:47;10.25;;;9.40;;
18066;SDS011;9158;51.528;7.192;2023-05-09T00:19:18;10.70;;;9.80;;
18066;SDS011;9158;51.528;7.192;2023-05-09T00:19:50;11.90;;;10.70;;
18066;SDS011;9158;51.528;7.192;2023-05-09T00:20:22;10.93;;;9.82;;
18066;SDS011;9158;51.528;7.192;2023-05-09T00:20:53;10.68;;;9.77;;
18066;SDS011;9158;51.528;7.192;2023-05-09T00:21:25;10.68;;;9.75;;
18066;SDS011;9158;51.528;7.192;2023-05-09T00:21:57;11.65;;;10.45;;
18066;SDS011;9158;51.528;7.192;2023-05-09T00:22:28;13.80;;;11.23;;
18066;SDS011;9158;51.528;7.192;2023-05-09T00:23:00;11.60;;;10.45;;
18066;SDS011;9158;51.528;7.192;2023-05-09T00:23:31;11.40;;;10.35;;
18066;SDS011;9158;51.528;7.192;2023-05-09T00:24:02;11.90;;;10.80;;
18066;SDS011;9158;51.528;7.192;2023-05-09T00:24:36;10.45;;;9.65;;
18066;SDS011;9158;51.528;7.192;2023-05-09T00:25:07;11.10;;;10.10;;
18066;SDS011;9158;51.528;7.192;2023-05-09T00:25:39;11.75;;;10.73;;
18066;SDS011;9158;51.528;7.192;2023-05-09T00:26:11;11.77;;;10.68;;
18066;SDS011;9158;51.528;7.192;2023-05-09T00:26:45;11.82;;;10.82;;
18066;SDS011;9158;51.528;7.192;2023-05-09T00:27:16;12.03;;;10.80;;
18066;SDS011;9158;51.528;7.192;2023-05-09T00:27:47;11.15;;;10.15;;
18066;SDS011;9158;51.528;7.192;2023-05-09T00:28:19;11.55;;;10.55;;
18066;SDS011;9158;51.528;7.192;2023-05-09T00:28:50;11.13;;;10.18;;
18066;SDS011;9158;51.528;7.192;2023-05-09T00:29:21;10.95;;;9.95;;
18066;SDS011;9158;51.528;7.192;2023-05-09T00:29:52;12.00;;;10.90;;
18066;SDS011;9158;51.528;7.192;2023-05-09T00:30:24;11.57;;;10.52;;
18066;SDS011;9158;51.528;7.192;2023-05-09T00:30:55;11.38;;;10.38;;
18066;SDS011;9158;51.528;7.192;2023-05-09T00:31:26;11.35;;;10.45;;
18066;SDS011;9158;51.528;7.192;2023-05-09T00:31:58;12.18;;;11.10;;
18066;SDS011;9158;51.528;7.192;2023-05-09T00:32:29;11.73;;;10.40;;
18066;SDS011;9158;51.528;7.192;2023-05-09T00:33:01;10.75;;;9.88;;
18066;SDS011;9158;51.528;7.192;2023-05-09T00:33:32;11.75;;;10.50;;
18066;SDS011;9158;51.528;7.192;2023-05-09T00:34:04;13.15;;;11.95;;
18066;SDS011;9158;51.528;7.192;2023-05-09T00:34:35;12.13;;;11.13;;
18066;SDS011;9158;51.528;7.192;2023-05-09T00:35:07;11.55;;;10.45;;
18066;SDS011;9158;51.528;7.192;2023-05-09T00:35:39;11.60;;;10.63;;
18066;SDS011;9158;51.528;7.192;2023-05-09T00:36:11;12.73;;;10.57;;
18066;SDS011;9158;51.528;7.192;2023-05-09T00:36:42;12.23;;;11.23;;
18066;SDS011;9158;51.528;7.192;2023-05-09T00:37:13;11.80;;;10.80;;
18066;SDS011;9158;51.528;7.192;2023-05-09T00:37:47;11.73;;;10.75;;
18066;SDS011;9158;51.528;7.192;2023-05-09T00:38:18;11.95;;;10.75;;
18066;SDS011;9158;51.528;7.192;2023-05-09T00:38:49;12.43;;;11.13;;
18066;SDS011;9158;51.528;7.192;2023-05-09T00:39:21;12.82;;;11.63;;
18066;SDS011;9158;51.528;7.192;2023-05-09T00:39:53;12.65;;;11.65;;
18066;SDS011;9158;51.528;7.192;2023-05-09T00:40:24;12.00;;;10.95;;
18066;SDS011;9158;51.528;7.192;2023-05-09T00:40:56;13.55;;;12.00;;
18066;SDS011;9158;51.528;7.192;2023-05-09T00:41:27;11.05;;;10.15;;
18066;SDS011;9158;51.528;7.192;2023-05-09T00:41:58;13.15;;;11.63;;
18066;SDS011;9158;51.528;7.192;2023-05-09T00:42:30;11.70;;;10.73;;
18066;SDS011;9158;51.528;7.192;2023-05-09T00:43:01;11.88;;;10.98;;
18066;SDS011;9158;51.528;7.192;2023-05-09T00:43:34;12.45;;;11.25;;
18066;SDS011;9158;51.528;7.192;2023-05-09T00:44:05;12.30;;;11.02;;
18066;SDS011;9158;51.528;7.192;2023-05-09T00:44:37;12.65;;;11.55;;
18066;SDS011;9158;51.528;7.192;2023-05-09T00:45:08;12.70;;;11.40;;
18066;SDS011;9158;51.528;7.192;2023-05-09T00:45:39;12.13;;;10.88;;
18066;SDS011;9158;51.528;7.192;2023-05-09T00:46:11;11.88;;;10.88;;
18066;SDS011;9158;51.528;7.192;2023-05-09T00:46:42;12.27;;;10.90;;
18066;SDS011;9158;51.528;7.192;2023-05-09T00:47:14;13.00;;;11.80;;
18066;SDS011;9158;51.528;7.192;2023-05-09T00:47:46;12.40;;;11.10;;
18066;SDS011;9158;51.528;7.192;2023-05-09T00:48:17;12.95;;;11.82;;
18066;SDS011;9158;51.528;7.192;2023-05-09T00:48:48;13.40;;;12.10;;
18066;SDS011;9158;51.528;7.192;2023-05-09T00:49:21;12.73;;;11.43;;
18066;SDS011;9158;51.528;7.192;2023-05-09T00:49:52;11.82;;;10.82;;
18066;SDS011;9158;51.528;7.192;2023-05-09T00:50:23;12.18;;;11.02;;
18066;SDS011;9158;51.528;7.192;2023-05-09T00:50:55;12.60;;;11.45;;
18066;SDS011;9158;51.528;7.192;2023-05-09T00:51:26;12.38;;;11.35;;
18066;SDS011;9158;51.528;7.192;2023-05-09T00:51:58;13.98;;;12.68;;
18066;SDS011;9158;51.528;7.192;2023-05-09T00:52:31;13.52;;;11.43;;
18066;SDS011;9158;51.528;7.192;2023-05-09T00:53:04;12.60;;;11.50;;
18066;SDS011;9158;51.528;7.192;2023-05-09T00:53:35;12.52;;;11.45;;
18066;SDS011;9158;51.528;7.192;2023-05-09T00:54:06;13.00;;;11.68;;
18066;SDS011;9158;51.528;7.192;2023-05-09T00:54:38;11.65;;;10.65;;
18066;SDS011;9158;51.528;7.192;2023-05-09T00:55:11;13.60;;;12.30;;
18066;SDS011;9158;51.528;7.192;2023-05-09T00:55:43;12.57;;;11.52;;
18066;SDS011;9158;51.528;7.192;2023-05-09T00:56:15;12.30;;;11.20;;
18066;SDS011;9158;51.528;7.192;2023-05-09T00:56:46;13.50;;;11.38;;
18066;SDS011;9158;51.528;7.192;2023-05-09T00:57:18;15.93;;;12.05;;
18066;SDS011;9158;51.528;7.192;2023-05-09T00:57:50;14.15;;;11.82;;
18066;SDS011;9158;51.528;7.192;2023-05-09T00:58:21;12.48;;;11.45;;
18066;SDS011;9158;51.528;7.192;2023-05-09T00:58:53;13.30;;;12.10;;
18066;SDS011;9158;51.528;7.192;2023-05-09T00:59:25;12.40;;;11.40;;
18066;SDS011;9158;51.528;7.192;2023-05-09T00:59:56;12.57;;;11.48;;
18066;SDS011;9158;51.528;7.192;2023-05-09T01:00:27;13.63;;;12.32;;
18066;SDS011;9158;51.528;7.192;2023-05-09T01:00:59;12.77;;;11.65;;
18066;SDS011;9158;51.528;7.192;2023-05-09T01:01:32;13.10;;;11.70;;
18066;SDS011;9158;51.528;7.192;2023-05-09T01:02:03;13.57;;;12.27;;
18066;SDS011;9158;51.528;7.192;2023-05-09T01:02:35;12.57;;;11.57;;
18066;SDS011;9158;51.528;7.192;2023-05-09T01:03:06;12.48;;;11.48;;
18066;SDS011;9158;51.528;7.192;2023-05-09T01:03:38;12.70;;;11.50;;
18066;SDS011;9158;51.528;7.192;2023-05-09T01:04:11;13.18;;;12.07;;
18066;SDS011;9158;51.528;7.192;2023-05-09T01:04:43;12.82;;;11.65;;
18066;SDS011;9158;51.528;7.192;2023-05-09T01:05:15;13.35;;;12.05;;
18066;SDS011;9158;51.528;7.192;2023-05-09T01:05:51;13.77;;;12.57;;
18066;SDS011;9158;51.528;7.192;2023-05-09T01:06:28;14.35;;;12.85;;
18066;SDS011;9158;51.528;7.192;2023-05-09T01:07:09;12.23;;;11.23;;
18066;SDS011;9158;51.528;7.192;2023-05-09T01:07:49;12.57;;;11.38;;
18066;SDS011;9158;51.528;7.192;2023-05-09T01:08:30;11.38;;;10.48;;
18066;SDS011;9158;51.528;7.192;2023-05-09T01:09:15;12.65;;;11.55;;
18066;SDS011;9158;51.528;7.192;2023-05-09T01:09:55;14.82;;;11.23;;
18066;SDS011;9158;51.528;7.192;2023-05-09T01:10:34;12.38;;;11.27;;
18066;SDS011;9158;51.528;7.192;2023-05-09T01:11:09;12.95;;;11.75;;
18066;SDS011;9158;51.528;7.192;2023-05-09T01:11:44;11.85;;;10.82;;
18066;SDS011;9158;51.528;7.192;2023-05-09T01:12:25;13.82;;;12.55;;
18066;SDS011;9158;51.528;7.192;2023-05-09T01:13:13;12.77;;;11.68;;
18066;SDS011;9158;51.528;7.192;2023-05-09T01:13:49;12.60;;;11.40;;
18066;SDS011;9158;51.528;7.192;2023-05-09T01:14:29;12.23;;;11.02;;
18066;SDS011;9158;51.528;7.192;2023-05-09T01:15:11;13.95;;;12.55;;
18066;SDS011;9158;51.528;7.192;2023-05-09T01:15:48;13.70;;;12.25;;
18066;SDS011;9158;51.528;7.192;2023-05-09T01:16:25;13.55;;;12.25;;
18066;SDS011;9158;51.528;7.192;2023-05-09T01:17:04;12.70;;;11.40;;
18066;SDS011;9158;51.528;7.192;2023-05-09T01:17:43;13.48;;;12.05;;
18066;SDS011;9158;51.528;7.192;2023-05-09T01:18:23;12.32;;;11.23;;
18066;SDS011;9158;51.528;7.192;2023-05-09T01:19:01;15.52;;;12.00;;
18066;SDS011;9158;51.528;7.192;2023-05-09T01:19:53;13.55;;;12.35;;
18066;SDS011;9158;51.528;7.192;2023-05-09T01:20:31;12.88;;;11.73;;
18066;SDS011;9158;51.528;7.192;2023-05-09T01:21:07;11.77;;;10.75;;
18066;SDS011;9158;51.528;7.192;2023-05-09T01:21:41;13.82;;;12.43;;
18066;SDS011;9158;51.528;7.192;2023-05-09T01:22:13;12.10;;;11.02;;
18066;SDS011;9158;51.528;7.192;2023-05-09T01:22:47;11.52;;;10.45;;
18066;SDS011;9158;51.528;7.192;2023-05-09T01:23:39;12.40;;;11.20;;
18066;SDS011;9158;51.528;7.192;2023-05-09T01:24:33;13.00;;;11.80;;
18066;SDS011;9158;51.528;7.192;2023-05-09T01:25:30;12.75;;;11.65;;
18066;SDS011;9158;51.528;7.192;2023-05-09T01:26:14;11.55;;;10.52;;
18066;SDS011;9158;51.528;7.192;2023-05-09T01:26:55;12.10;;;11.00;;
18066;SDS011;9158;51.528;7.192;2023-05-09T01:27:41;13.65;;;12.35;;
18066;SDS011;9158;51.528;7.192;2023-05-09T01:28:34;12.70;;;11.60;;
18066;SDS011;9158;51.528;7.192;2023-05-09T01:29:30;12.65;;;11.45;;
18066;SDS011;9158;51.528;7.192;2023-05-09T01:30:06;14.98;;;11.25;;
18066;SDS011;9158;51.528;7.192;2023-05-09T01:30:39;11.50;;;10.50;;
18066;SDS011;9158;51.528;7.192;2023-05-09T01:31:13;12.50;;;11.40;;
18066;SDS011;9158;51.528;7.192;2023-05-09T01:31:47;12.30;;;11.05;;
18066;SDS011;9158;51.528;7.192;2023-05-09T01:32:21;12.73;;;11.50;;
18066;SDS011;9158;51.528;7.192;2023-05-09T01:32:55;11.68;;;10.57;;
18066;SDS011;9158;51.528;7.192;2023-05-09T01:33:31;13.20;;;11.93;;
18066;SDS011;9158;51.528;7.192;2023-05-09T01:34:05;11.48;;;10.38;;
18066;SDS011;9158;51.528;7.192;2023-05-09T01:34:37;13.05;;;11.68;;
18066;SDS011;9158;51.528;7.192;2023-05-09T01:35:11;12.80;;;11.60;;
18066;SDS011;9158;51.528;7.192;2023-05-09T01:35:45;12.15;;;11.10;;
18066;SDS011;9158;51.528;7.192;2023-05-09T01:36:22;12.27;;;11.18;;
18066;SDS011;9158;51.528;7.192;2023-05-09T01:36:58;12.48;;;11.38;;
18066;SDS011;9158;51.528;7.192;2023-05-09T01:37:31;12.20;;;10.90;;
18066;SDS011;9158;51.528;7.192;2023-05-09T01:38:06;13.05;;;11.68;;
18066;SDS011;9158;51.528;7.192;2023-05-09T01:38:40;12.25;;;11.15;;
18066;SDS011;9158;51.528;7.192;2023-05-09T01:39:13;12.43;;;11.25;;
18066;SDS011;9158;51.528;7.192;2023-05-09T01:39:47;11.75;;;10.75;;
18066;SDS011;9158;51.528;7.192;2023-05-09T01:40:23;12.95;;;11.65;;
18066;SDS011;9158;51.528;7.192;2023-05-09T01:40:58;13.00;;;11.65;;
18066;SDS011;9158;51.528;7.192;2023-05-09T01:41:33;12.75;;;11.65;;
18066;SDS011;9158;51.528;7.192;2023-05-09T01:42:08;13.10;;;11.98;;
18066;SDS011;9158;51.528;7.192;2023-05-09T01:42:42;12.45;;;11.32;;
18066;SDS011;9158;51.528;7.192;2023-05-09T01:43:18;13.73;;;12.02;;
18066;SDS011;9158;51.528;7.192;2023-05-09T01:43:50;12.75;;;11.65;;
18066;SDS011;9158;51.528;7.192;2023-05-09T01:44:24;13.60;;;12.20;;
18066;SDS011;9158;51.528;7.192;2023-05-09T01:44:58;13.60;;;12.35;;
18066;SDS011;9158;51.528;7.192;2023-05-09T01:45:30;14.52;;;11.63;;
18066;SDS011;9158;51.528;7.192;2023-05-09T01:46:02;12.80;;;11.57;;
18066;SDS011;9158;51.528;7.192;2023-05-09T01:46:34;12.40;;;11.35;;
18066;SDS011;9158;51.528;7.192;2023-05-09T01:47:06;13.73;;;12.43;;
18066;SDS011;9158;51.528;7.192;2023-05-09T01:47:39;12.05;;;10.95;;
18066;SDS011;9158;51.528;7.192;2023-05-09T01:48:12;12.88;;;11.77;;
18066;SDS011;9158;51.528;7.192;2023-05-09T01:48:44;14.23;;;12.77;;
18066;SDS011;9158;51.528;7.192;2023-05-09T01:49:16;13.32;;;11.95;;
18066;SDS011;9158;51.528;7.192;2023-05-09T01:49:49;12.07;;;11.07;;
18066;SDS011;9158;51.528;7.192;2023-05-09T01:50:22;13.55;;;12.15;;
18066;SDS011;9158;51.528;7.192;2023-05-09T01:50:55;14.68;;;13.27;;
18066;SDS011;9158;51.528;7.192;2023-05-09T01:51:27;13.98;;;12.60;;
18066;SDS011;9158;51.528;7.192;2023-05-09T01:52:01;12.07;;;11.02;;
18066;SDS011;9158;51.528;7.192;2023-05-09T01:52:36;12.73;;;11.55;;
18066;SDS011;9158;51.528;7.192;2023-05-09T01:53:09;13.63;;;12.38;;
18066;SDS011;9158;51.528;7.192;2023-05-09T01:53:41;13.98;;;12.60;;
18066;SDS011;9158;51.528;7.192;2023-05-09T01:54:15;13.20;;;12.10;;
18066;SDS011;9158;51.528;7.192;2023-05-09T01:54:47;13.18;;;11.98;;
18066;SDS011;9158;51.528;7.192;2023-05-09T01:55:20;11.43;;;10.32;;
18066;SDS011;9158;51.528;7.192;2023-05-09T01:55:55;14.05;;;12.75;;
18066;SDS011;9158;51.528;7.192;2023-05-09T01:56:27;12.93;;;11.73;;
18066;SDS011;9158;51.528;7.192;2023-05-09T01:57:00;13.32;;;12.02;;
18066;SDS011;9158;51.528;7.192;2023-05-09T01:57:33;13.20;;;12.10;;
18066;SDS011;9158;51.528;7.192;2023-05-09T01:58:05;13.23;;;12.00;;
18066;SDS011;9158;51.528;7.192;2023-05-09T01:58:37;13.10;;;11.90;;
18066;SDS011;9158;51.528;7.192;2023-05-09T01:59:10;12.88;;;11.75;;
18066;SDS011;9158;51.528;7.192;2023-05-09T01:59:45;14.73;;;12.45;;
18066;SDS011;9158;51.528;7.192;2023-05-09T02:00:19;13.05;;;11.85;;
18066;SDS011;9158;51.528;7.192;2023-05-09T02:00:54;14.05;;;12.85;;
18066;SDS011;9158;51.528;7.192;2023-05-09T02:01:25;13.05;;;11.85;;
18066;SDS011;9158;51.528;7.192;2023-05-09T02:01:56;13.82;;;12.48;;
18066;SDS011;9158;51.528;7.192;2023-05-09T02:02:30;13.40;;;11.95;;
18066;SDS011;9158;51.528;7.192;2023-05-09T02:03:02;13.52;;;12.23;;
18066;SDS011;9158;51.528;7.192;2023-05-09T02:03:34;12.52;;;11.32;;
18066;SDS011;9158;51.528;7.192;2023-05-09T02:04:08;13.68;;;12.45;;
18066;SDS011;9158;51.528;7.192;2023-05-09T02:04:40;11.80;;;10.60;;
18066;SDS011;9158;51.528;7.192;2023-05-09T02:05:12;11.95;;;10.85;;
18066;SDS011;9158;51.528;7.192;2023-05-09T02:05:45;12.48;;;11.38;;
18066;SDS011;9158;51.528;7.192;2023-05-09T02:06:18;13.65;;;12.45;;
18066;SDS011;9158;51.528;7.192;2023-05-09T02:06:51;13.98;;;11.77;;
18066;SDS011;9158;51.528;7.192;2023-05-09T02:07:24;13.43;;;12.23;;
18066;SDS011;9158;51.528;7.192;2023-05-09T02:07:58;14.75;;;13.45;;
18066;SDS011;9158;51.528;7.192;2023-05-09T02:08:30;14.00;;;12.70;;
18066;SDS011;9158;51.528;7.192;2023-05-09T02:09:04;14.20;;;12.90;;
18066;SDS011;9158;51.528;7.192;2023-05-09T02:09:35;13.80;;;12.60;;
18066;SDS011;9158;51.528;7.192;2023-05-09T02:10:06;13.82;;;12.23;;
18066;SDS011;9158;51.528;7.192;2023-05-09T02:10:40;13.57;;;12.38;;
18066;SDS011;9158;51.528;7.192;2023-05-09T02:11:14;11.98;;;10.98;;
18066;SDS011;9158;51.528;7.192;2023-05-09T02:11:45;13.18;;;11.98;;
18066;SDS011;9158;51.528;7.192;2023-05-09T02:12:17;14.32;;;12.93;;
18066;SDS011;9158;51.528;7.192;2023-05-09T02:12:49;14.02;;;12.73;;
18066;SDS011;9158;51.528;7.192;2023-05-09T02:13:20;14.10;;;12.80;;
18066;SDS011;9158;51.528;7.192;2023-05-09T02:13:51;14.10;;;12.90;;
18066;SDS011;9158;51.528;7.192;2023-05-09T02:14:23;13.27;;;11.98;;
18066;SDS011;9158;51.528;7.192;2023-05-09T02:14:55;13.10;;;11.93;;
18066;SDS011;9158;51.528;7.192;2023-05-09T02:15:27;14.25;;;12.85;;
18066;SDS011;9158;51.528;7.192;2023-05-09T02:16:00;15.43;;;13.90;;
18066;SDS011;9158;51.528;7.192;2023-05-09T02:16:32;13.02;;;11.93;;
18066;SDS011;9158;51.528;7.192;2023-05-09T02:17:03;13.52;;;12.20;;
18066;SDS011;9158;51.528;7.192;2023-05-09T02:17:36;12.52;;;11.23;;
18066;SDS011;9158;51.528;7.192;2023-05-09T02:18:07;13.32;;;12.18;;
18066;SDS011;9158;51.528;7.192;2023-05-09T02:18:38;14.90;;;13.45;;
18066;SDS011;9158;51.528;7.192;2023-05-09T02:19:11;14.32;;;12.93;;
18066;SDS011;9158;51.528;7.192;2023-05-09T02:19:42;13.70;;;12.33;;
18066;SDS011;9158;51.528;7.192;2023-05-09T02:20:13;13.85;;;12.50;;
18066;SDS011;9158;51.528;7.192;2023-05-09T02:20:45;14.45;;;13.05;;
18066;SDS011;9158;51.528;7.192;2023-05-09T02:21:16;14.38;;;13.07;;
18066;SDS011;9158;51.528;7.192;2023-05-09T02:21:48;15.70;;;14.20;;
18066;SDS011;9158;51.528;7.192;2023-05-09T02:22:20;13.55;;;12.27;;
18066;SDS011;9158;51.528;7.192;2023-05-09T02:22:51;13.63;;;12.40;;
18066;SDS011;9158;51.528;7.192;2023-05-09T02:23:23;17.00;;;13.25;;
18066;SDS011;9158;51.528;7.192;2023-05-09T02:23:55;14.73;;;13.25;;
18066;SDS011;9158;51.528;7.192;2023-05-09T02:24:26;14.40;;;13.00;;
18066;SDS011;9158;51.528;7.192;2023-05-09T02:24:57;14.10;;;12.75;;
18066;SDS011;9158;51.528;7.192;2023-05-09T02:25:29;13.95;;;12.65;;
18066;SDS011;9158;51.528;7.192;2023-05-09T02:26:02;14.43;;;13.13;;
18066;SDS011;9158;51.528;7.192;2023-05-09T02:26:33;14.80;;;13.40;;
18066;SDS011;9158;51.528;7.192;2023-05-09T02:27:06;15.52;;;13.93;;
18066;SDS011;9158;51.528;7.192;2023-05-09T02:27:39;14.95;;;13.50;;
18066;SDS011;9158;51.528;7.192;2023-05-09T02:28:12;15.48;;;14.07;;
18066;SDS011;9158;51.528;7.192;2023-05-09T02:28:44;14.82;;;13.43;;
18066;SDS011;9158;51.528;7.192;2023-05-09T02:29:17;14.77;;;13.35;;
18066;SDS011;9158;51.528;7.192;2023-05-09T02:29:53;14.32;;;13.13;;
18066;SDS011;9158;51.528;7.192;2023-05-09T02:30:30;16.35;;;14.57;;
18066;SDS011;9158;51.528;7.192;2023-05-09T02:31:06;15.20;;;13.77;;
18066;SDS011;9158;51.528;7.192;2023-05-09T02:31:38;16.15;;;14.50;;
18066;SDS011;9158;51.528;7.192;2023-05-09T02:32:13;15.93;;;14.48;;
18066;SDS011;9158;51.528;7.192;2023-05-09T02:32:46;14.52;;;13.13;;
18066;SDS011;9158;51.528;7.192;2023-05-09T02:33:19;14.88;;;13.57;;
18066;SDS011;9158;51.528;7.192;2023-05-09T02:33:51;15.43;;;14.02;;
18066;SDS011;9158;51.528;7.192;2023-05-09T02:34:24;15.98;;;14.50;;
18066;SDS011;9158;51.528;7.192;2023-05-09T02:34:55;16.35;;;14.75;;
18066;SDS011;9158;51.528;7.192;2023-05-09T02:35:28;15.60;;;14.10;;
18066;SDS011;9158;51.528;7.192;2023-05-09T02:36:00;18.10;;;13.82;;
18066;SDS011;9158;51.528;7.192;2023-05-09T02:36:32;16.08;;;13.40;;
18066;SDS011;9158;51.528;7.192;2023-05-09T02:37:04;14.70;;;13.32;;
18066;SDS011;9158;51.528;7.192;2023-05-09T02:37:37;15.23;;;13.70;;
18066;SDS011;9158;51.528;7.192;2023-05-09T02:38:09;13.77;;;12.48;;
18066;SDS011;9158;51.528;7.192;2023-05-09T02:38:41;14.30;;;13.00;;
18066;SDS011;9158;51.528;7.192;2023-05-09T02:39:14;14.57;;;13.18;;
18066;SDS011;9158;51.528;7.192;2023-05-09T02:39:45;14.50;;;13.07;;
18066;SDS011;9158;51.528;7.192;2023-05-09T02:40:17;16.48;;;14.85;;
18066;SDS011;9158;51.528;7.192;2023-05-09T02:40:51;16.35;;;14.65;;
18066;SDS011;9158;51.528;7.192;2023-05-09T02:41:24;14.95;;;13.55;;
18066;SDS011;9158;51.528;7.192;2023-05-09T02:42:01;14.68;;;13.35;;
18066;SDS011;9158;51.528;7.192;2023-05-09T02:42:36;15.75;;;14.20;;
18066;SDS011;9158;51.528;7.192;2023-05-09T02:43:07;17.60;;;15.90;;
18066;SDS011;9158;51.528;7.192;2023-05-09T02:43:38;15.20;;;13.70;;
18066;SDS011;9158;51.528;7.192;2023-05-09T02:44:11;15.85;;;14.25;;
18066;SDS011;9158;51.528;7.192;2023-05-09T02:44:42;15.77;;;14.35;;
18066;SDS011;9158;51.528;7.192;2023-05-09T02:45:13;16.23;;;14.57;;
18066;SDS011;9158;51.528;7.192;2023-05-09T02:45:45;15.70;;;14.10;;
18066;SDS011;9158;51.528;7.192;2023-05-09T02:46:17;15.48;;;13.88;;
18066;SDS011;9158;51.528;7.192;2023-05-09T02:46:48;14.55;;;13.25;;
18066;SDS011;9158;51.528;7.192;2023-05-09T02:47:19;15.97;;;14.37;;
18066;SDS011;9158;51.528;7.192;2023-05-09T02:47:52;15.50;;;13.77;;
18066;SDS011;9158;51.528;7.192;2023-05-09T02:48:23;15.70;;;14.20;;
18066;SDS011;9158;51.528;7.192;2023-05-09T02:48:54;16.02;;;14.43;;
18066;SDS011;9158;51.528;7.192;2023-05-09T02:49:27;15.73;;;14.13;;
18066;SDS011;9158;51.528;7.192;2023-05-09T02:49:58;16.42;;;14.82;;
18066;SDS011;9158;51.528;7.192;2023-05-09T02:50:29;14.88;;;13.48;;
18066;SDS011;9158;51.528;7.192;2023-05-09T02:51:00;15.68;;;14.07;;
18066;SDS011;9158;51.528;7.192;2023-05-09T02:51:32;16.33;;;13.35;;
18066;SDS011;9158;51.528;7.192;2023-05-09T02:52:03;15.63;;;14.10;;
18066;SDS011;9158;51.528;7.192;2023-05-09T02:52:34;14.82;;;13.52;;
18066;SDS011;9158;51.528;7.192;2023-05-09T02:53:06;16.17;;;14.48;;
18066;SDS011;9158;51.528;7.192;2023-05-09T02:53:38;14.77;;;13.48;;
18066;SDS011;9158;51.528;7.192;2023-05-09T02:54:08;17.03;;;15.47;;
18066;SDS011;9158;51.528;7.192;2023-05-09T02:54:39;17.00;;;15.37;;
18066;SDS011;9158;51.528;7.192;2023-05-09T02:55:11;16.55;;;15.02;;
18066;SDS011;9158;51.528;7.192;2023-05-09T02:55:44;16.58;;;14.98;;
18066;SDS011;9158;51.528;7.192;2023-05-09T02:56:15;18.70;;;16.83;;
18066;SDS011;9158;51.528;7.192;2023-05-09T02:56:47;18.58;;;16.77;;
18066;SDS011;9158;51.528;7.192;2023-05-09T02:57:18;17.02;;;15.32;;
18066;SDS011;9158;51.528;7.192;2023-05-09T02:57:50;18.13;;;16.20;;
18066;SDS011;9158;51.528;7.192;2023-05-09T02:58:22;19.25;;;17.30;;
18066;SDS011;9158;51.528;7.192;2023-05-09T02:58:53;16.30;;;14.90;;
18066;SDS011;9158;51.528;7.192;2023-05-09T02:59:24;16.63;;;15.13;;
18066;SDS011;9158;51.528;7.192;2023-05-09T02:59:56;16.65;;;14.98;;
18066;SDS011;9158;51.528;7.192;2023-05-09T03:00:28;16.98;;;15.27;;
18066;SDS011;9158;51.528;7.192;2023-05-09T03:01:00;18.02;;;16.20;;
18066;SDS011;9158;51.528;7.192;2023-05-09T03:01:31;17.35;;;15.63;;
18066;SDS011;9158;51.528;7.192;2023-05-09T03:02:03;18.88;;;17.10;;
18066;SDS011;9158;51.528;7.192;2023-05-09T03:02:35;21.15;;;18.23;;
18066;SDS011;9158;51.528;7.192;2023-05-09T03:03:06;17.40;;;15.70;;
18066;SDS011;9158;51.528;7.192;2023-05-09T03:03:38;18.27;;;16.15;;
18066;SDS011;9158;51.528;7.192;2023-05-09T03:04:09;18.20;;;16.40;;
18066;SDS011;9158;51.528;7.192;2023-05-09T03:04:40;18.75;;;15.30;;
18066;SDS011;9158;51.528;7.192;2023-05-09T03:05:12;16.30;;;14.70;;
18066;SDS011;9158;51.528;7.192;2023-05-09T03:05:44;17.00;;;15.25;;
18066;SDS011;9158;51.528;7.192;2023-05-09T03:06:15;16.23;;;14.63;;
18066;SDS011;9158;51.528;7.192;2023-05-09T03:06:47;16.38;;;14.88;;
18066;SDS011;9158;51.528;7.192;2023-05-09T03:07:18;16.48;;;14.88;;
18066;SDS011;9158;51.528;7.192;2023-05-09T03:07:49;18.48;;;15.45;;
18066;SDS011;9158;51.528;7.192;2023-05-09T03:08:22;15.50;;;14.13;;
18066;SDS011;9158;51.528;7.192;2023-05-09T03:08:52;16.83;;;15.13;;
18066;SDS011;9158;51.528;7.192;2023-05-09T03:09:25;16.65;;;14.80;;
18066;SDS011;9158;51.528;7.192;2023-05-09T03:09:56;16.00;;;14.50;;
18066;SDS011;9158;51.528;7.192;2023-05-09T03:10:28;16.30;;;14.60;;
18066;SDS011;9158;51.528;7.192;2023-05-09T03:10:59;17.73;;;14.65;;
18066;SDS011;9158;51.528;7.192;2023-05-09T03:11:30;15.63;;;14.02;;
18066;SDS011;9158;51.528;7.192;2023-05-09T03:12:01;15.10;;;13.73;;
18066;SDS011;9158;51.528;7.192;2023-05-09T03:12:33;15.82;;;14.27;;
18066;SDS011;9158;51.528;7.192;2023-05-09T03:13:04;15.48;;;13.90;;
18066;SDS011;9158;51.528;7.192;2023-05-09T03:13:36;16.63;;;14.88;;
18066;SDS011;9158;51.528;7.192;2023-05-09T03:14:08;16.40;;;14.90;;
18066;SDS011;9158;51.528;7.192;2023-05-09T03:14:40;16.65;;;14.95;;
18066;SDS011;9158;51.528;7.192;2023-05-09T03:15:11;15.23;;;13.65;;
18066;SDS011;9158;51.528;7.192;2023-05-09T03:15:44;14.90;;;13.48;;
18066;SDS011;9158;51.528;7.192;2023-05-09T03:16:18;14.93;;;13.48;;
18066;SDS011;9158;51.528;7.192;2023-05-09T03:16:50;16.13;;;14.45;;